Time;durP1;ratioP1;P1;durP2;ratioP2;P2;SDS_P1;SDS_P2;PMS_P1;PMS_P2;Temp;Humidity;BMP_temperature;BMP_pressure;BME280_temperature;BME280_humidity;BME280_pressure;Samples;Min_cycle;Max_cycle;Signal;HPM_P1;HPM_P2
2022/06/22 00:02:03;;;;;;;6.00;5.05;;;;;;;;;;5073649;28;20403;-88
2022/06/22 00:04:31;;;;;;;6.18;5.45;;;;;;;;;;5073392;28;20376;-90
2022/06/22 00:07:09;;;;;;;6.78;5.20;;;;;;;;;;5072004;28;20449;-89
2022/06/22 00:09:36;;;;;;;6.65;5.05;;;;;;;;;;5071460;28;20421;-90
2022/06/22 00:12:02;;;;;;;8.30;5.97;;;;;;;;;;5073607;28;20402;-89
2022/06/22 00:14:32;;;;;;;5.75;5.15;;;;;;;;;;5072722;28;20383;-89
2022/06/22 00:16:58;;;;;;;6.03;5.07;;;;;;;;;;5076342;28;20504;-89
2022/06/22 00:19:40;;;;;;;5.78;5.20;;;;;;;;;;5076392;28;20415;-89
2022/06/22 00:22:06;;;;;;;6.47;4.80;;;;;;;;;;5064389;28;20418;-88
2022/06/22 00:24:35;;;;;;;7.35;5.40;;;;;;;;;;5071805;28;20861;-89
2022/06/22 00:27:28;;;;;;;5.75;5.20;;;;;;;;;;5062809;28;20373;-88
2022/06/22 00:30:06;;;;;;;6.15;5.45;;;;;;;;;;5072202;28;20410;-89
2022/06/22 00:32:32;;;;;;;6.35;5.45;;;;;;;;;;5076334;28;20388;-88
2022/06/22 00:34:58;;;;;;;5.68;5.00;;;;;;;;;;5076289;28;20513;-89
2022/06/22 00:37:29;;;;;;;5.68;5.05;;;;;;;;;;5075471;28;20395;-90
2022/06/22 00:39:59;;;;;;;8.30;5.27;;;;;;;;;;5076100;28;20421;-90
2022/06/22 00:42:25;;;;;;;6.97;5.57;;;;;;;;;;5075953;28;20488;-89
2022/06/22 00:44:52;;;;;;;6.30;5.22;;;;;;;;;;5075874;28;20419;-90
2022/06/22 00:47:18;;;;;;;7.97;5.53;;;;;;;;;;5074929;28;20410;-90
2022/06/22 00:49:45;;;;;;;8.13;6.65;;;;;;;;;;5075696;28;20380;-89
2022/06/22 00:52:14;;;;;;;7.45;6.40;;;;;;;;;;5075661;28;20379;-89
2022/06/22 00:54:40;;;;;;;7.53;6.18;;;;;;;;;;5071711;28;20384;-89
2022/06/22 00:57:09;;;;;;;7.18;5.97;;;;;;;;;;5070529;28;20408;-89
2022/06/22 00:59:54;;;;;;;6.22;5.60;;;;;;;;;;5074789;28;20390;-89
2022/06/22 01:02:29;;;;;;;7.25;6.15;;;;;;;;;;5072879;28;20416;-89
2022/06/22 01:05:13;;;;;;;6.30;5.65;;;;;;;;;;5066015;28;20372;-89
2022/06/22 01:07:42;;;;;;;8.02;5.57;;;;;;;;;;5075729;28;20364;-88
2022/06/22 01:10:19;;;;;;;7.13;5.25;;;;;;;;;;5076095;28;20455;-89
2022/06/22 01:13:01;;;;;;;7.32;5.63;;;;;;;;;;5075523;28;20421;-89
2022/06/22 01:15:34;;;;;;;6.68;5.00;;;;;;;;;;5075869;28;20376;-88
2022/06/22 01:18:06;;;;;;;6.40;5.47;;;;;;;;;;5073924;28;20388;-90
2022/06/22 01:20:36;;;;;;;6.80;5.18;;;;;;;;;;5065190;28;20387;-88
2022/06/22 01:23:02;;;;;;;7.05;5.20;;;;;;;;;;5062304;28;20404;-89
2022/06/22 01:25:50;;;;;;;6.82;5.18;;;;;;;;;;5076511;28;20379;-89
2022/06/22 01:28:17;;;;;;;6.47;5.75;;;;;;;;;;5075272;28;20367;-90
2022/06/22 01:30:44;;;;;;;5.45;4.95;;;;;;;;;;5076117;28;20375;-89
2022/06/22 01:33:15;;;;;;;7.37;5.10;;;;;;;;;;5075827;28;20930;-89
2022/06/22 01:35:41;;;;;;;6.00;5.40;;;;;;;;;;5076177;28;20402;-89
2022/06/22 01:38:12;;;;;;;6.82;5.85;;;;;;;;;;5062714;28;20392;-89
2022/06/22 01:40:45;;;;;;;7.82;5.68;;;;;;;;;;5064508;28;20876;-89
2022/06/22 01:43:18;;;;;;;6.25;5.22;;;;;;;;;;5076914;28;20403;-90
2022/06/22 01:45:51;;;;;;;5.70;5.10;;;;;;;;;;5077367;28;20379;-90
2022/06/22 01:48:25;;;;;;;5.15;4.65;;;;;;;;;;5080240;28;20367;-89
2022/06/22 01:51:03;;;;;;;4.97;4.50;;;;;;;;;;5066743;28;20387;-89
2022/06/22 01:53:39;;;;;;;5.55;5.05;;;;;;;;;;5075661;28;20466;-89
2022/06/22 01:56:24;;;;;;;5.43;4.90;;;;;;;;;;5067005;28;20383;-89
2022/06/22 01:58:59;;;;;;;7.38;5.18;;;;;;;;;;5073456;28;20395;-88
2022/06/22 02:01:31;;;;;;;6.65;5.32;;;;;;;;;;5071138;28;20410;-88
2022/06/22 02:04:00;;;;;;;6.35;5.40;;;;;;;;;;5073249;28;20395;-89
2022/06/22 02:09:22;;;;;;;5.60;4.80;;;;;;;;;;5074093;28;20890;-89
2022/06/22 02:12:18;;;;;;;6.40;5.05;;;;;;;;;;5074612;28;20394;-89
2022/06/22 02:14:38;;;;;;;6.73;4.93;;;;;;;;;;5062095;28;20487;-91
2022/06/22 02:17:04;;;;;;;6.25;5.18;;;;;;;;;;5071525;28;20375;-88
2022/06/22 02:19:30;;;;;;;6.40;5.13;;;;;;;;;;5070750;28;20430;-88
2022/06/22 02:21:57;;;;;;;6.32;4.80;;;;;;;;;;5074304;28;20426;-89
2022/06/22 02:24:26;;;;;;;6.65;5.30;;;;;;;;;;5072853;28;20857;-89
2022/06/22 02:26:55;;;;;;;6.03;5.30;;;;;;;;;;5059140;28;20382;-89
2022/06/22 02:29:24;;;;;;;9.40;5.30;;;;;;;;;;5073322;28;20374;-89
2022/06/22 02:31:53;;;;;;;5.82;5.07;;;;;;;;;;5060170;28;20419;-88
2022/06/22 02:34:19;;;;;;;5.22;4.72;;;;;;;;;;5074045;28;20421;-87
2022/06/22 02:36:46;;;;;;;6.97;5.00;;;;;;;;;;5073788;28;21011;-87
2022/06/22 02:39:13;;;;;;;5.70;4.72;;;;;;;;;;5073097;28;20375;-89
2022/06/22 02:44:31;;;;;;;5.57;5.00;;;;;;;;;;5073789;28;20398;-89
2022/06/22 02:47:10;;;;;;;5.40;4.90;;;;;;;;;;5073669;28;20383;-89
2022/06/22 02:49:38;;;;;;;7.80;5.53;;;;;;;;;;5073976;28;20406;-89
2022/06/22 02:52:04;;;;;;;7.72;5.50;;;;;;;;;;5073479;28;20379;-89
2022/06/22 02:54:36;;;;;;;6.10;5.10;;;;;;;;;;5070733;28;20470;-89
2022/06/22 02:57:11;;;;;;;6.45;5.45;;;;;;;;;;5068194;28;20398;-89
2022/06/22 02:59:38;;;;;;;6.88;5.45;;;;;;;;;;5073483;28;20391;-89
2022/06/22 03:02:05;;;;;;;5.68;4.90;;;;;;;;;;5073686;28;20907;-90
2022/06/22 03:04:32;;;;;;;5.97;4.85;;;;;;;;;;5073452;28;20385;-89
2022/06/22 03:06:58;;;;;;;6.78;5.30;;;;;;;;;;5073947;28;20383;-89
2022/06/22 03:09:26;;;;;;;6.30;4.95;;;;;;;;;;5071363;28;20877;-89
2022/06/22 03:11:55;;;;;;;6.18;5.57;;;;;;;;;;5064136;28;20897;-89
2022/06/22 03:14:26;;;;;;;8.40;5.03;;;;;;;;;;5067426;28;20409;-90
2022/06/22 03:17:13;;;;;;;5.35;4.88;;;;;;;;;;5058892;28;20372;-90
2022/06/22 03:19:52;;;;;;;7.68;5.47;;;;;;;;;;5072254;28;20375;-89
2022/06/22 03:22:26;;;;;;;7.30;5.70;;;;;;;;;;5070895;28;20486;-89
2022/06/22 03:24:56;;;;;;;7.00;5.43;;;;;;;;;;5071598;28;20380;-88
2022/06/22 03:27:24;;;;;;;6.95;6.25;;;;;;;;;;5071900;28;20379;-90
2022/06/22 03:29:53;;;;;;;7.57;5.65;;;;;;;;;;5071509;28;20383;-91
2022/06/22 03:32:25;;;;;;;9.02;6.95;;;;;;;;;;5071824;28;20856;-91
2022/06/22 03:34:56;;;;;;;7.57;5.88;;;;;;;;;;5068867;28;20379;-89
2022/06/22 03:37:45;;;;;;;7.57;6.78;;;;;;;;;;5064981;28;20457;-89
2022/06/22 03:40:17;;;;;;;7.35;6.35;;;;;;;;;;5069230;28;20857;-88
2022/06/22 03:42:47;;;;;;;7.07;6.47;;;;;;;;;;5073202;28;20471;-89
2022/06/22 03:45:19;;;;;;;7.93;7.22;;;;;;;;;;5072796;28;20376;-88
2022/06/22 03:47:57;;;;;;;7.55;6.85;;;;;;;;;;5073503;28;20372;-90
2022/06/22 03:50:29;;;;;;;8.73;6.20;;;;;;;;;;5073255;28;20395;-89
2022/06/22 03:53:12;;;;;;;7.88;6.03;;;;;;;;;;5076797;28;20375;-88
2022/06/22 03:55:40;;;;;;;8.13;6.13;;;;;;;;;;5068052;28;20379;-88
2022/06/22 03:58:07;;;;;;;9.13;6.40;;;;;;;;;;5075226;28;20383;-88
2022/06/22 04:00:34;;;;;;;8.50;5.75;;;;;;;;;;5076245;28;20392;-88
2022/06/22 04:03:00;;;;;;;6.20;5.35;;;;;;;;;;5076110;28;20457;-89
2022/06/22 04:05:29;;;;;;;9.13;5.53;;;;;;;;;;5076038;28;20379;-89
2022/06/22 04:07:55;;;;;;;6.75;6.15;;;;;;;;;;5076280;28;20404;-89
2022/06/22 04:10:34;;;;;;;8.93;6.00;;;;;;;;;;5076213;28;20378;-88
2022/06/22 04:13:01;;;;;;;7.10;6.50;;;;;;;;;;5076089;28;20474;-89
2022/06/22 04:15:27;;;;;;;8.55;6.18;;;;;;;;;;5076303;28;20388;-88
2022/06/22 04:17:56;;;;;;;6.80;6.10;;;;;;;;;;5076033;28;20901;-88
2022/06/22 04:20:49;;;;;;;7.40;6.70;;;;;;;;;;5076467;28;20430;-88
2022/06/22 04:23:15;;;;;;;6.93;6.28;;;;;;;;;;5072318;28;20415;-88
2022/06/22 04:25:41;;;;;;;8.97;6.33;;;;;;;;;;5074847;28;20413;-89
2022/06/22 04:28:09;;;;;;;6.65;5.75;;;;;;;;;;5073507;28;20372;-88
2022/06/22 04:30:42;;;;;;;6.95;6.25;;;;;;;;;;5075652;28;20391;-87
2022/06/22 04:33:18;;;;;;;6.82;6.07;;;;;;;;;;5075895;28;20383;-88
2022/06/22 04:35:50;;;;;;;7.65;6.32;;;;;;;;;;5075800;28;20865;-89
2022/06/22 04:38:22;;;;;;;7.47;6.80;;;;;;;;;;5074199;28;20503;-87
2022/06/22 04:40:48;;;;;;;7.20;6.57;;;;;;;;;;5075429;28;20386;-87
2022/06/22 04:43:14;;;;;;;9.55;7.38;;;;;;;;;;5075312;28;20404;-87
2022/06/22 04:45:43;;;;;;;9.40;6.90;;;;;;;;;;5072130;28;20429;-88
2022/06/22 04:48:12;;;;;;;9.67;7.57;;;;;;;;;;5068018;28;20913;-87
2022/06/22 04:50:40;;;;;;;7.90;7.10;;;;;;;;;;5066883;28;20441;-87
2022/06/22 04:53:11;;;;;;;7.70;7.00;;;;;;;;;;5075617;28;20371;-87
2022/06/22 04:55:41;;;;;;;8.32;6.70;;;;;;;;;;5066491;28;20424;-87
2022/06/22 04:58:15;;;;;;;8.60;7.68;;;;;;;;;;5064907;28;20893;-88
2022/06/22 05:00:42;;;;;;;7.43;6.82;;;;;;;;;;5071627;28;20404;-87
2022/06/22 05:03:10;;;;;;;8.45;7.55;;;;;;;;;;5071839;28;20415;-88
2022/06/22 05:05:36;;;;;;;10.50;8.35;;;;;;;;;;5075629;28;20391;-87
2022/06/22 05:08:05;;;;;;;10.77;8.60;;;;;;;;;;5074875;28;20391;-87
2022/06/22 05:10:41;;;;;;;10.25;9.20;;;;;;;;;;5073668;28;20849;-89
2022/06/22 05:13:18;;;;;;;12.23;10.07;;;;;;;;;;5067208;28;20389;-87
2022/06/22 05:15:46;;;;;;;9.20;8.27;;;;;;;;;;5074440;28;20388;-89
2022/06/22 05:18:14;;;;;;;11.18;9.77;;;;;;;;;;5075006;28;20459;-88
2022/06/22 05:20:58;;;;;;;11.50;8.65;;;;;;;;;;5073494;28;20734;-88
2022/06/22 05:23:26;;;;;;;10.65;9.02;;;;;;;;;;5074731;28;20525;-88
2022/06/22 05:25:52;;;;;;;9.95;9.05;;;;;;;;;;5075074;28;20378;-88
2022/06/22 05:28:22;;;;;;;12.40;9.90;;;;;;;;;;5073069;28;20480;-87
2022/06/22 05:30:57;;;;;;;10.48;9.30;;;;;;;;;;5075221;28;20433;-88
2022/06/22 05:33:25;;;;;;;12.85;10.30;;;;;;;;;;5074657;28;20462;-88
2022/06/22 05:36:03;;;;;;;11.30;10.05;;;;;;;;;;5075317;28;20388;-87
2022/06/22 05:38:29;;;;;;;10.60;9.60;;;;;;;;;;5075079;28;20399;-87
2022/06/22 05:40:56;;;;;;;10.80;9.80;;;;;;;;;;5074736;28;20384;-88
2022/06/22 05:43:23;;;;;;;10.93;9.88;;;;;;;;;;5074457;28;20484;-88
2022/06/22 05:45:55;;;;;;;12.05;9.40;;;;;;;;;;5074743;28;20387;-87
2022/06/22 05:48:25;;;;;;;10.57;9.55;;;;;;;;;;5074548;28;20861;-88
2022/06/22 05:51:00;;;;;;;11.70;9.45;;;;;;;;;;5060997;28;20378;-88
2022/06/22 05:53:30;;;;;;;12.68;11.45;;;;;;;;;;5074910;28;20391;-87
2022/06/22 05:56:02;;;;;;;13.52;11.55;;;;;;;;;;5066399;28;20376;-87
2022/06/22 05:58:39;;;;;;;11.33;10.23;;;;;;;;;;5072223;28;20780;-87
2022/06/22 06:01:12;;;;;;;10.63;9.73;;;;;;;;;;5061879;28;20420;-87
2022/06/22 06:03:42;;;;;;;10.40;9.37;;;;;;;;;;5054922;28;20409;-88
2022/06/22 06:06:13;;;;;;;11.70;9.93;;;;;;;;;;5061830;28;20372;-87
2022/06/22 06:08:40;;;;;;;10.52;9.52;;;;;;;;;;5078705;28;20372;-87
2022/06/22 06:11:07;;;;;;;10.63;9.68;;;;;;;;;;5076367;28;20387;-88
2022/06/22 06:13:35;;;;;;;9.90;8.90;;;;;;;;;;5061581;28;20382;-88
2022/06/22 06:16:01;;;;;;;9.63;8.63;;;;;;;;;;5074495;28;20417;-87
2022/06/22 06:18:32;;;;;;;7.87;7.10;;;;;;;;;;5068500;28;20389;-87
2022/06/22 06:21:02;;;;;;;11.60;8.02;;;;;;;;;;5066558;28;20372;-88
2022/06/22 06:23:32;;;;;;;7.97;7.18;;;;;;;;;;5073582;28;20411;-87
2022/06/22 06:28:47;;;;;;;12.75;9.10;;;;;;;;;;5072011;28;20387;-92
2022/06/22 06:31:19;;;;;;;10.65;9.35;;;;;;;;;;5074716;28;20384;-90
2022/06/22 06:33:45;;;;;;;13.80;10.02;;;;;;;;;;5060425;28;20389;-91
2022/06/22 06:36:21;;;;;;;14.20;10.85;;;;;;;;;;5054024;28;20778;-89
2022/06/22 06:38:54;;;;;;;11.10;10.00;;;;;;;;;;5071899;28;20868;-91
2022/06/22 06:41:39;;;;;;;10.77;8.50;;;;;;;;;;5074163;28;20380;-90
2022/06/22 06:44:14;;;;;;;12.27;9.75;;;;;;;;;;5068495;28;20897;-92
2022/06/22 06:46:44;;;;;;;11.55;8.65;;;;;;;;;;5068946;28;20390;-91
2022/06/22 06:49:10;;;;;;;10.48;8.15;;;;;;;;;;5061350;28;20784;-91
2022/06/22 06:51:38;;;;;;;11.10;8.82;;;;;;;;;;5062172;28;20377;-91
2022/06/22 06:54:07;;;;;;;11.30;10.07;;;;;;;;;;5074738;28;20383;-92
2022/06/22 06:56:37;;;;;;;12.48;10.95;;;;;;;;;;5067447;28;20895;-92
2022/06/22 06:59:04;;;;;;;11.88;10.40;;;;;;;;;;5076783;28;20380;-93
2022/06/22 07:01:33;;;;;;;8.48;7.57;;;;;;;;;;5067603;28;20401;-90
2022/06/22 07:04:07;;;;;;;12.70;8.18;;;;;;;;;;5075916;28;20402;-91
2022/06/22 07:06:33;;;;;;;10.13;8.32;;;;;;;;;;5079286;28;20367;-91
2022/06/22 07:09:12;;;;;;;11.17;8.47;;;;;;;;;;5073643;28;20366;-91
2022/06/22 07:11:44;;;;;;;9.63;8.00;;;;;;;;;;5076863;28;20912;-92
2022/06/22 07:14:14;;;;;;;7.35;6.65;;;;;;;;;;5077445;28;20392;-91
2022/06/22 07:16:41;;;;;;;8.77;7.05;;;;;;;;;;5076315;28;20422;-91
2022/06/22 07:19:19;;;;;;;7.70;6.87;;;;;;;;;;5076184;28;20404;-92
2022/06/22 07:21:48;;;;;;;8.23;7.47;;;;;;;;;;5075783;28;20378;-88
2022/06/22 07:24:29;;;;;;;8.98;7.13;;;;;;;;;;5069452;28;20392;-89
2022/06/22 07:26:59;;;;;;;10.50;7.13;;;;;;;;;;5063712;28;20420;-90
2022/06/22 07:29:43;;;;;;;9.07;7.53;;;;;;;;;;5070058;28;20765;-90
2022/06/22 07:32:13;;;;;;;8.32;7.47;;;;;;;;;;5069300;28;20392;-88
2022/06/22 07:34:50;;;;;;;10.48;7.30;;;;;;;;;;5066488;28;20480;-91
2022/06/22 07:37:26;;;;;;;9.93;7.43;;;;;;;;;;5074304;28;20367;-91
2022/06/22 07:39:54;;;;;;;9.10;7.75;;;;;;;;;;5073164;28;20388;-91
2022/06/22 07:42:20;;;;;;;8.18;7.35;;;;;;;;;;5072401;28;20399;-90
2022/06/22 07:44:46;;;;;;;11.02;7.85;;;;;;;;;;5072668;28;20391;-91
2022/06/22 07:47:26;;;;;;;9.77;7.15;;;;;;;;;;5074214;28;20372;-90
2022/06/22 07:50:04;;;;;;;6.97;6.38;;;;;;;;;;5073620;28;20375;-91
2022/06/22 07:52:33;;;;;;;8.65;7.70;;;;;;;;;;5073776;28;20392;-90
2022/06/22 07:55:04;;;;;;;8.13;6.87;;;;;;;;;;5066672;28;20373;-90
2022/06/22 07:57:53;;;;;;;7.53;6.35;;;;;;;;;;5073324;28;20399;-91
2022/06/22 08:00:21;;;;;;;10.82;7.30;;;;;;;;;;5052279;28;20397;-90
2022/06/22 08:03:16;;;;;;;7.00;5.95;;;;;;;;;;5072224;28;20408;-90
2022/06/22 08:05:43;;;;;;;9.93;7.80;;;;;;;;;;5073391;28;20400;-90
2022/06/22 08:08:16;;;;;;;12.02;9.32;;;;;;;;;;5073980;28;20372;-91
2022/06/22 08:10:45;;;;;;;8.63;7.60;;;;;;;;;;5073350;28;20423;-89
2022/06/22 08:13:22;;;;;;;12.13;8.38;;;;;;;;;;5073226;28;20379;-90
2022/06/22 08:15:54;;;;;;;11.60;10.35;;;;;;;;;;5073799;28;20416;-91
2022/06/22 08:18:20;;;;;;;11.93;10.43;;;;;;;;;;5073325;28;20380;-91
2022/06/22 08:20:48;;;;;;;12.43;10.27;;;;;;;;;;5073755;28;20386;-90
2022/06/22 08:23:16;;;;;;;13.50;10.77;;;;;;;;;;5073484;28;20399;-90
2022/06/22 08:25:44;;;;;;;11.48;10.50;;;;;;;;;;5073575;28;20387;-90
2022/06/22 08:28:10;;;;;;;13.15;9.90;;;;;;;;;;5072002;28;20391;-91
2022/06/22 08:30:36;;;;;;;11.20;9.70;;;;;;;;;;5069114;28;20387;-90
2022/06/22 08:33:04;;;;;;;10.13;8.82;;;;;;;;;;5073889;28;20387;-91
2022/06/22 08:35:33;;;;;;;9.15;8.20;;;;;;;;;;5073730;28;20382;-90
2022/06/22 08:38:02;;;;;;;10.10;8.45;;;;;;;;;;5071464;28;20418;-90
2022/06/22 08:40:41;;;;;;;9.70;8.70;;;;;;;;;;5077166;28;20384;-91
2022/06/22 08:43:27;;;;;;;13.18;9.95;;;;;;;;;;5076834;28;20404;-91
2022/06/22 08:45:53;;;;;;;10.63;9.65;;;;;;;;;;5076966;28;20387;-90
2022/06/22 08:48:22;;;;;;;9.57;8.48;;;;;;;;;;5076343;28;20388;-91
2022/06/22 08:51:06;;;;;;;10.35;8.32;;;;;;;;;;5077211;28;20409;-90
2022/06/22 08:53:45;;;;;;;11.20;9.13;;;;;;;;;;5076533;28;20384;-92
2022/06/22 08:56:29;;;;;;;13.97;10.20;;;;;;;;;;5077413;28;20392;-91
2022/06/22 08:59:05;;;;;;;14.57;11.77;;;;;;;;;;5075753;28;20445;-88
2022/06/22 09:01:49;;;;;;;17.00;12.20;;;;;;;;;;5076327;28;20399;-92
2022/06/22 09:04:24;;;;;;;16.30;12.70;;;;;;;;;;5077080;28;20881;-91
2022/06/22 09:07:04;;;;;;;15.80;13.55;;;;;;;;;;5075887;28;20380;-89
2022/06/22 09:09:45;;;;;;;14.50;12.70;;;;;;;;;;5076359;28;20455;-90
2022/06/22 09:12:23;;;;;;;15.70;12.00;;;;;;;;;;5076380;28;20385;-89
2022/06/22 09:14:57;;;;;;;12.48;9.80;;;;;;;;;;5078030;28;20375;-90
2022/06/22 09:17:39;;;;;;;10.77;9.63;;;;;;;;;;5077755;28;20380;-91
2022/06/22 09:20:14;;;;;;;10.05;8.65;;;;;;;;;;5077902;28;20372;-91
2022/06/22 09:22:49;;;;;;;10.45;8.20;;;;;;;;;;5074878;28;20426;-92
2022/06/22 09:25:23;;;;;;;9.27;7.50;;;;;;;;;;5076546;28;20447;-93
2022/06/22 09:28:01;;;;;;;17.00;9.13;;;;;;;;;;5077639;28;20464;-91
2022/06/22 09:30:35;;;;;;;12.70;8.18;;;;;;;;;;5063081;28;20382;-89
2022/06/22 09:33:13;;;;;;;9.45;8.52;;;;;;;;;;5076420;28;20380;-88
2022/06/22 09:35:44;;;;;;;9.90;8.10;;;;;;;;;;5075698;28;20887;-90
2022/06/22 09:38:21;;;;;;;9.55;8.60;;;;;;;;;;5076048;28;20391;-91
2022/06/22 09:40:59;;;;;;;8.82;7.90;;;;;;;;;;5076311;28;20402;-91
2022/06/22 09:43:43;;;;;;;9.63;8.23;;;;;;;;;;5074169;28;20399;-92
2022/06/22 09:46:15;;;;;;;9.05;7.40;;;;;;;;;;5076339;28;20387;-89
2022/06/22 09:49:06;;;;;;;9.77;8.25;;;;;;;;;;5075902;28;20391;-90
2022/06/22 09:51:41;;;;;;;12.97;8.90;;;;;;;;;;5076162;28;20402;-90
2022/06/22 09:56:19;;;;;;;8.77;7.93;;;;;;;;;;5075418;28;20961;-89
2022/06/22 09:57:05;;;;;;;10.20;7.80;;;;;;;;;;5057085;28;20377;-91
2022/06/22 09:59:50;;;;;;;9.70;7.45;;;;;;;;;;5076758;28;20380;-89
2022/06/22 10:02:22;;;;;;;8.82;7.45;;;;;;;;;;5076188;28;20427;-90
2022/06/22 10:04:48;;;;;;;8.48;7.57;;;;;;;;;;5075943;28;20372;-90
2022/06/22 10:07:17;;;;;;;7.78;6.95;;;;;;;;;;5074276;28;20429;-90
2022/06/22 10:09:50;;;;;;;10.02;6.57;;;;;;;;;;5075824;28;20426;-89
2022/06/22 10:12:19;;;;;;;8.18;6.10;;;;;;;;;;5074652;28;20425;-89
2022/06/22 10:14:55;;;;;;;10.15;6.07;;;;;;;;;;5075627;28;20475;-90
2022/06/22 10:17:21;;;;;;;8.45;6.18;;;;;;;;;;5075519;28;20514;-90
2022/06/22 10:20:07;;;;;;;10.43;6.10;;;;;;;;;;5074471;28;20429;-89
2022/06/22 10:22:55;;;;;;;8.45;5.43;;;;;;;;;;5074813;28;20490;-91
2022/06/22 10:25:21;;;;;;;9.50;5.75;;;;;;;;;;5064629;28;20428;-89
2022/06/22 10:27:50;;;;;;;10.80;6.00;;;;;;;;;;5076626;28;20800;-90
2022/06/22 10:30:24;;;;;;;9.18;6.00;;;;;;;;;;5076422;28;20379;-90
2022/06/22 10:33:09;;;;;;;11.90;5.95;;;;;;;;;;5076364;28;20942;-90
2022/06/22 10:35:35;;;;;;;10.43;4.77;;;;;;;;;;5076526;28;20380;-90
2022/06/22 10:38:37;;;;;;;10.23;5.10;;;;;;;;;;5075099;28;20395;-89
2022/06/22 10:47:00;;;;;;;9.48;4.80;;;;;;;;;;5075652;28;20441;-88
2022/06/22 10:49:37;;;;;;;10.30;4.78;;;;;;;;;;5072968;28;20379;-91
2022/06/22 10:52:10;;;;;;;10.48;4.43;;;;;;;;;;5058717;28;20381;-88
2022/06/22 10:54:36;;;;;;;10.93;5.22;;;;;;;;;;5070185;28;20392;-87
2022/06/22 10:57:14;;;;;;;8.98;4.47;;;;;;;;;;5069679;28;20387;-90
2022/06/22 10:59:40;;;;;;;10.10;4.40;;;;;;;;;;5073799;28;20449;-90
2022/06/22 11:02:39;;;;;;;10.18;4.70;;;;;;;;;;5073966;28;20403;-90
2022/06/22 11:05:06;;;;;;;8.82;4.10;;;;;;;;;;5064344;28;20794;-89
2022/06/22 11:07:32;;;;;;;11.43;4.80;;;;;;;;;;5072119;28;20379;-90
2022/06/22 11:10:19;;;;;;;13.30;4.85;;;;;;;;;;5074648;28;20375;-90
2022/06/22 11:13:08;;;;;;;10.57;4.85;;;;;;;;;;5073484;28;20393;-89
2022/06/22 11:15:43;;;;;;;9.40;5.15;;;;;;;;;;5073072;28;20738;-89
2022/06/22 11:18:18;;;;;;;10.45;4.95;;;;;;;;;;5073305;28;20383;-91
2022/06/22 11:20:44;;;;;;;13.02;6.20;;;;;;;;;;5071525;28;20383;-90
2022/06/22 11:23:11;;;;;;;10.88;6.05;;;;;;;;;;5074337;28;20420;-90
2022/06/22 11:31:37;;;;;;;11.35;5.10;;;;;;;;;;5074616;28;20376;-89
2022/06/22 11:34:03;;;;;;;9.95;5.30;;;;;;;;;;5074184;28;20467;-88
2022/06/22 11:36:32;;;;;;;10.17;5.50;;;;;;;;;;5074112;28;20567;-89
2022/06/22 11:39:01;;;;;;;13.20;4.88;;;;;;;;;;5072619;28;20487;-90
2022/06/22 11:41:36;;;;;;;12.57;3.67;;;;;;;;;;5073341;28;20482;-89
2022/06/22 11:44:17;;;;;;;13.75;4.10;;;;;;;;;;5073236;28;20400;-89
2022/06/22 11:46:48;;;;;;;11.75;4.20;;;;;;;;;;5073059;28;20433;-89
2022/06/22 11:49:14;;;;;;;14.27;4.30;;;;;;;;;;5073112;28;20449;-89
2022/06/22 11:51:40;;;;;;;12.88;4.57;;;;;;;;;;5073169;28;20407;-89
2022/06/22 11:54:25;;;;;;;9.57;3.80;;;;;;;;;;5059171;28;20411;-89
2022/06/22 11:56:57;;;;;;;11.32;4.50;;;;;;;;;;5066709;28;20471;-89
2022/06/22 11:59:38;;;;;;;13.52;4.55;;;;;;;;;;5073106;28;20388;-89
2022/06/22 12:02:20;;;;;;;10.77;4.13;;;;;;;;;;5073265;28;20473;-89
2022/06/22 12:04:54;;;;;;;8.95;4.22;;;;;;;;;;5071734;28;20380;-88
2022/06/22 12:07:29;;;;;;;14.68;5.30;;;;;;;;;;5073708;28;20878;-89
2022/06/22 12:10:04;;;;;;;13.27;4.75;;;;;;;;;;5074021;28;20415;-90
2022/06/22 12:12:46;;;;;;;12.75;4.70;;;;;;;;;;5074066;28;20384;-90
2022/06/22 12:15:30;;;;;;;12.60;5.07;;;;;;;;;;5077269;28;20864;-89
2022/06/22 12:18:15;;;;;;;9.38;4.53;;;;;;;;;;5076399;28;20426;-90
2022/06/22 12:20:41;;;;;;;14.15;4.60;;;;;;;;;;5068525;28;20380;-90
2022/06/22 12:23:46;;;;;;;11.27;4.60;;;;;;;;;;5075961;28;20456;-91
2022/06/22 12:26:32;;;;;;;11.70;5.10;;;;;;;;;;5060027;28;20478;-90
2022/06/22 12:29:12;;;;;;;11.15;4.78;;;;;;;;;;5075332;28;20877;-90
2022/06/22 12:31:47;;;;;;;12.07;4.90;;;;;;;;;;5058030;28;20388;-90
2022/06/22 12:34:25;;;;;;;12.02;4.70;;;;;;;;;;5069073;28;20380;-91
2022/06/22 12:36:55;;;;;;;13.67;5.20;;;;;;;;;;5071680;28;20457;-91
2022/06/22 12:39:36;;;;;;;15.07;5.93;;;;;;;;;;5075539;28;20888;-90
2022/06/22 12:42:17;;;;;;;12.55;5.65;;;;;;;;;;5058483;28;20774;-91
2022/06/22 12:44:58;;;;;;;11.68;5.15;;;;;;;;;;5058154;28;20462;-91
2022/06/22 12:47:43;;;;;;;13.30;5.17;;;;;;;;;;5076927;28;20458;-91
2022/06/22 12:50:27;;;;;;;10.63;5.40;;;;;;;;;;5076577;28;20467;-90
2022/06/22 12:52:57;;;;;;;9.55;4.63;;;;;;;;;;5077513;28;20388;-92
2022/06/22 12:55:28;;;;;;;10.18;5.03;;;;;;;;;;5058805;28;20956;-91
2022/06/22 12:58:03;;;;;;;16.25;5.68;;;;;;;;;;5068248;28;20408;-91
2022/06/22 13:00:29;;;;;;;9.80;5.20;;;;;;;;;;5077299;28;20396;-90
2022/06/22 13:02:58;;;;;;;14.23;5.70;;;;;;;;;;5078447;28;20486;-92
2022/06/22 13:05:26;;;;;;;9.52;5.07;;;;;;;;;;5077463;28;20379;-93
2022/06/22 13:08:00;;;;;;;10.95;4.45;;;;;;;;;;5076130;28;20403;-92
2022/06/22 13:10:28;;;;;;;12.88;5.15;;;;;;;;;;5078161;28;20891;-90
2022/06/22 13:12:57;;;;;;;11.25;4.65;;;;;;;;;;5077918;28;20854;-93
2022/06/22 13:15:42;;;;;;;12.20;4.90;;;;;;;;;;5076845;28;20424;-92
2022/06/22 13:18:11;;;;;;;10.05;4.32;;;;;;;;;;5077740;28;20454;-92
2022/06/22 13:20:44;;;;;;;8.75;4.03;;;;;;;;;;5077584;28;20445;-91
2022/06/22 13:23:16;;;;;;;11.98;4.10;;;;;;;;;;5072949;28;20444;-90
2022/06/22 13:25:51;;;;;;;11.10;4.55;;;;;;;;;;5077523;28;20404;-91
2022/06/22 13:28:34;;;;;;;8.18;4.40;;;;;;;;;;5077175;28;20368;-90
2022/06/22 13:31:02;;;;;;;10.52;3.80;;;;;;;;;;5077492;28;20392;-90
2022/06/22 13:33:49;;;;;;;8.45;3.75;;;;;;;;;;5075962;28;20462;-91
2022/06/22 13:36:38;;;;;;;13.57;4.50;;;;;;;;;;5076963;28;20388;-91
2022/06/22 13:39:13;;;;;;;8.20;4.27;;;;;;;;;;5068900;28;20471;-91
2022/06/22 13:41:52;;;;;;;11.27;4.50;;;;;;;;;;5073695;28;20425;-91
2022/06/22 13:44:24;;;;;;;10.77;4.35;;;;;;;;;;5068368;28;20392;-90
2022/06/22 13:46:53;;;;;;;9.02;4.20;;;;;;;;;;5062490;28;20382;-91
2022/06/22 13:49:38;;;;;;;12.55;4.60;;;;;;;;;;5067956;28;20810;-92
2022/06/22 13:52:16;;;;;;;9.90;3.97;;;;;;;;;;5073469;28;20376;-90
2022/06/22 13:54:52;;;;;;;8.52;3.60;;;;;;;;;;5074652;28;20401;-91
2022/06/22 13:57:56;;;;;;;9.37;3.67;;;;;;;;;;5070631;28;20372;-91
2022/06/22 14:00:25;;;;;;;9.57;3.80;;;;;;;;;;5068797;28;20486;-91
2022/06/22 14:02:58;;;;;;;9.27;3.63;;;;;;;;;;5073023;28;20500;-92
2022/06/22 14:05:33;;;;;;;10.63;3.30;;;;;;;;;;5073916;28;20426;-91
2022/06/22 14:08:19;;;;;;;10.63;4.00;;;;;;;;;;5076564;28;20372;-90
2022/06/22 14:10:53;;;;;;;8.68;3.88;;;;;;;;;;5067280;28;20459;-91
2022/06/22 14:13:35;;;;;;;8.38;3.90;;;;;;;;;;5062572;28;20425;-91
2022/06/22 14:16:26;;;;;;;11.60;3.85;;;;;;;;;;5055836;28;20400;-91
2022/06/22 14:19:00;;;;;;;13.73;4.40;;;;;;;;;;5072377;28;20412;-91
2022/06/22 14:21:30;;;;;;;9.27;3.55;;;;;;;;;;5063002;28;20424;-91
2022/06/22 14:23:57;;;;;;;11.40;3.57;;;;;;;;;;5075907;28;20452;-90
2022/06/22 14:26:40;;;;;;;10.70;3.80;;;;;;;;;;5075901;28;20383;-91
2022/06/22 14:29:12;;;;;;;9.80;3.85;;;;;;;;;;5072104;28;20404;-88
2022/06/22 14:31:41;;;;;;;11.32;3.78;;;;;;;;;;5062786;28;20384;-89
2022/06/22 14:34:26;;;;;;;11.35;4.20;;;;;;;;;;5055243;28;20878;-92
2022/06/22 14:37:07;;;;;;;11.00;3.63;;;;;;;;;;5065158;28;20389;-91
2022/06/22 14:39:40;;;;;;;8.75;3.63;;;;;;;;;;5066536;28;20423;-91
2022/06/22 14:42:13;;;;;;;9.00;3.40;;;;;;;;;;5069943;28;20383;-87
2022/06/22 14:44:39;;;;;;;9.82;3.67;;;;;;;;;;5054539;28;20377;-87
2022/06/22 14:47:23;;;;;;;8.23;3.33;;;;;;;;;;5056655;28;20379;-87
2022/06/22 14:49:58;;;;;;;12.33;3.90;;;;;;;;;;5055220;28;20855;-87
2022/06/22 14:52:38;;;;;;;7.78;3.15;;;;;;;;;;5053916;28;20388;-86
2022/06/22 14:55:21;;;;;;;7.82;3.17;;;;;;;;;;5058710;28;20426;-86
2022/06/22 14:57:50;;;;;;;10.77;3.40;;;;;;;;;;5055239;28;20389;-89
2022/06/22 15:00:19;;;;;;;8.43;3.03;;;;;;;;;;5051940;28;20936;-87
2022/06/22 15:02:53;;;;;;;9.55;3.50;;;;;;;;;;5057450;28;20435;-87
2022/06/22 15:05:24;;;;;;;10.27;3.53;;;;;;;;;;5057669;28;20496;-84
2022/06/22 15:08:04;;;;;;;11.25;3.65;;;;;;;;;;5054730;28;20377;-85
2022/06/22 15:10:56;;;;;;;10.97;3.70;;;;;;;;;;5063988;28;20384;-88
2022/06/22 15:13:29;;;;;;;10.57;3.83;;;;;;;;;;5056259;28;20393;-87
2022/06/22 15:16:01;;;;;;;12.00;3.50;;;;;;;;;;5063174;28;20405;-87
2022/06/22 15:18:54;;;;;;;10.40;3.50;;;;;;;;;;5065027;28;20452;-88
2022/06/22 15:21:25;;;;;;;8.48;3.15;;;;;;;;;;5073185;28;20448;-90
2022/06/22 15:23:57;;;;;;;10.80;3.53;;;;;;;;;;5065940;28;20431;-89
2022/06/22 15:26:29;;;;;;;10.20;3.65;;;;;;;;;;5075152;28;20406;-91
2022/06/22 15:29:01;;;;;;;11.70;3.13;;;;;;;;;;5074833;28;20387;-91
2022/06/22 15:31:33;;;;;;;13.23;3.90;;;;;;;;;;5074239;28;20409;-90
2022/06/22 15:34:18;;;;;;;11.20;3.60;;;;;;;;;;5074423;28;20749;-89